createdAt,value
2019-06-27T00:02:03.939Z,62.92
2019-06-27T00:04:34.074Z,63.36
2019-06-27T00:07:04.444Z,63.47
2019-06-27T00:09:34.631Z,62.94
2019-06-27T00:12:04.759Z,62.25
2019-06-27T00:14:34.868Z,62.35
2019-06-27T00:17:05.237Z,64.04
2019-06-27T00:19:35.474Z,65.40
2019-06-27T00:22:05.628Z,66.35
2019-06-27T00:24:35.583Z,66.71
2019-06-27T00:27:05.766Z,66.70
2019-06-27T00:29:36.007Z,66.12
2019-06-27T00:32:05.926Z,65.49
2019-06-27T00:34:36.009Z,65.28
2019-06-27T00:37:06.267Z,65.52
2019-06-27T00:39:36.359Z,65.36
2019-06-27T00:42:06.626Z,64.76
2019-06-27T00:44:36.927Z,64.86
2019-06-27T00:47:06.855Z,66.19
2019-06-27T00:49:36.892Z,65.69
2019-06-27T00:52:07.290Z,65.88
2019-06-27T00:54:37.512Z,66.58
2019-06-27T00:57:14.129Z,67.61
2019-06-27T00:59:39.519Z,67.44
2019-06-27T01:02:09.648Z,67.12
2019-06-27T01:04:39.741Z,66.81
2019-06-27T01:07:09.984Z,66.65
2019-06-27T01:09:40.148Z,66.97
2019-06-27T01:12:10.500Z,67.43
2019-06-27T01:14:40.898Z,66.17
2019-06-27T01:17:10.874Z,65.48
2019-06-27T01:19:41.245Z,66.34
2019-06-27T01:22:11.304Z,66.52
2019-06-27T01:24:41.340Z,69.03
2019-06-27T01:27:11.612Z,66.02
2019-06-27T01:29:41.879Z,66.76
2019-06-27T01:32:11.869Z,66.28
2019-06-27T01:34:41.862Z,64.56
2019-06-27T01:37:12.247Z,64.30
2019-06-27T01:39:42.478Z,64.54
2019-06-27T01:42:12.384Z,65.77
2019-06-27T01:44:47.536Z,65.66
2019-06-27T01:47:17.847Z,67.32
2019-06-27T01:49:48.150Z,67.90
2019-06-27T01:52:18.159Z,67.33
2019-06-27T01:54:48.212Z,67.35
2019-06-27T01:57:18.621Z,67.31
2019-06-27T01:59:48.753Z,68.16
2019-06-27T02:02:19.039Z,68.56
2019-06-27T02:04:49.397Z,68.01
2019-06-27T02:07:19.571Z,68.63
2019-06-27T02:09:49.787Z,68.43
2019-06-27T02:12:20.169Z,67.81
2019-06-27T02:14:50.342Z,66.93
2019-06-27T02:17:20.401Z,65.74
2019-06-27T02:19:50.479Z,65.34
2019-06-27T02:22:20.647Z,65.32
2019-06-27T02:24:50.880Z,65.36
2019-06-27T02:27:20.947Z,65.73
2019-06-27T02:29:50.967Z,65.36
2019-06-27T02:32:21.147Z,65.43
2019-06-27T02:34:51.296Z,66.77
2019-06-27T02:37:21.357Z,67.95
2019-06-27T02:39:51.686Z,67.14
2019-06-27T02:42:21.767Z,67.97
2019-06-27T02:44:51.886Z,68.61
2019-06-27T02:47:22.068Z,67.79
2019-06-27T02:49:52.326Z,68.40
2019-06-27T02:52:22.421Z,68.93
2019-06-27T02:54:52.426Z,69.03
2019-06-27T02:57:22.859Z,69.40
2019-06-27T02:59:53.487Z,70.55
2019-06-27T03:02:23.555Z,70.58
2019-06-27T03:04:53.571Z,69.01
2019-06-27T03:07:23.750Z,69.46
2019-06-27T03:09:54.215Z,70.94
2019-06-27T03:12:24.360Z,71.28
2019-06-27T03:14:54.409Z,71.00
2019-06-27T03:17:24.750Z,71.13
2019-06-27T03:19:54.958Z,70.90
2019-06-27T03:22:25.357Z,70.65
2019-06-27T03:24:55.789Z,70.29
2019-06-27T03:27:25.826Z,69.34
2019-06-27T03:29:55.896Z,68.53
2019-06-27T03:32:26.184Z,68.43
2019-06-27T03:34:56.673Z,69.83
2019-06-27T03:37:26.677Z,69.66
2019-06-27T03:39:56.788Z,69.53
2019-06-27T03:42:27.125Z,67.75
2019-06-27T03:44:57.266Z,67.92
2019-06-27T03:47:27.242Z,68.09
2019-06-27T03:49:57.285Z,66.89
2019-06-27T03:52:27.645Z,66.62
2019-06-27T03:54:57.752Z,66.37
2019-06-27T03:57:27.989Z,67.29
2019-06-27T03:59:58.323Z,66.71
2019-06-27T04:02:28.402Z,65.76
2019-06-27T04:04:58.882Z,65.99
2019-06-27T04:07:29.026Z,64.57
2019-06-27T04:09:59.282Z,65.17
2019-06-27T04:12:29.348Z,64.02
2019-06-27T04:14:59.387Z,62.80
2019-06-27T04:17:29.460Z,63.38
2019-06-27T04:19:59.608Z,62.10
2019-06-27T04:22:29.683Z,62.25
2019-06-27T04:24:59.766Z,63.09
2019-06-27T04:27:29.795Z,62.85
2019-06-27T04:29:59.801Z,62.67
2019-06-27T04:32:29.922Z,63.41
2019-06-27T04:35:00.049Z,62.44
2019-06-27T04:37:30.052Z,61.71
2019-06-27T04:40:00.121Z,61.07
2019-06-27T04:42:30.079Z,62.74
2019-06-27T04:45:00.086Z,62.57
2019-06-27T04:47:30.170Z,62.31
2019-06-27T04:50:00.162Z,61.81
2019-06-27T04:52:30.197Z,60.91
2019-06-27T04:55:03.594Z,60.26
2019-06-27T04:57:32.098Z,60.07
2019-06-27T05:00:05.082Z,61.11
2019-06-27T05:02:35.078Z,60.04
2019-06-27T05:05:05.377Z,61.49
2019-06-27T05:07:35.521Z,61.19
2019-06-27T05:10:06.098Z,60.11
2019-06-27T05:12:36.069Z,59.43
2019-06-27T05:15:06.679Z,60.24
2019-06-27T05:17:36.795Z,59.95
2019-06-27T05:20:06.856Z,60.75
2019-06-27T05:22:36.966Z,60.02
2019-06-27T05:25:07.052Z,60.38
2019-06-27T05:27:37.163Z,59.21
2019-06-27T05:30:09.984Z,58.75
2019-06-27T05:32:39.068Z,58.00
2019-06-27T05:35:09.266Z,58.05
2019-06-27T05:37:39.382Z,57.76
2019-06-27T05:40:09.959Z,56.91
2019-06-27T05:42:40.221Z,56.12
2019-06-27T05:45:10.666Z,55.16
2019-06-27T05:47:40.740Z,55.22
2019-06-27T05:50:10.863Z,55.07
2019-06-27T05:52:40.833Z,55.08
2019-06-27T05:55:10.941Z,55.46
2019-06-27T05:57:41.005Z,53.88
2019-06-27T06:00:26.778Z,54.01
2019-06-27T06:02:45.139Z,55.55
2019-06-27T06:05:15.141Z,54.15
2019-06-27T06:07:45.073Z,53.77
2019-06-27T06:10:15.456Z,54.18
2019-06-27T06:12:45.529Z,51.87
2019-06-27T06:15:15.740Z,51.33
2019-06-27T06:17:46.011Z,53.04
2019-06-27T06:20:16.275Z,53.15
2019-06-27T06:22:46.310Z,51.19
2019-06-27T06:25:16.434Z,51.02
2019-06-27T06:27:46.498Z,50.42
2019-06-27T06:30:17.161Z,50.52
2019-06-27T06:32:47.173Z,49.98
2019-06-27T06:35:17.277Z,50.94
2019-06-27T06:37:47.322Z,50.97
2019-06-27T06:40:17.522Z,49.79
2019-06-27T06:42:47.627Z,50.48
2019-06-27T06:45:17.883Z,48.99
2019-06-27T06:47:47.861Z,46.81
2019-06-27T06:50:18.099Z,45.48
2019-06-27T06:52:48.159Z,45.32
2019-06-27T06:55:18.106Z,43.72
2019-06-27T06:57:48.184Z,43.06
2019-06-27T07:00:18.776Z,43.31
2019-06-27T07:02:48.939Z,43.54
2019-06-27T07:05:18.942Z,42.70
2019-06-27T07:07:48.927Z,40.92
2019-06-27T07:10:18.977Z,41.91
2019-06-27T07:12:49.066Z,41.49
2019-06-27T07:15:19.249Z,40.09
2019-06-27T07:17:49.264Z,41.21
2019-06-27T07:20:19.570Z,39.76
2019-06-27T07:22:49.610Z,38.65
2019-06-27T07:25:19.628Z,40.17
2019-06-27T07:27:49.635Z,39.13
2019-06-27T07:30:19.863Z,38.98
2019-06-27T07:32:49.858Z,39.49
2019-06-27T07:35:19.907Z,39.07
2019-06-27T07:37:50.017Z,38.27
2019-06-27T07:40:20.033Z,39.28
2019-06-27T07:42:50.093Z,36.90
2019-06-27T07:45:20.261Z,37.33
2019-06-27T07:47:50.293Z,36.20
2019-06-27T07:50:20.361Z,36.94
2019-06-27T07:52:50.413Z,37.05
2019-06-27T07:55:21.893Z,37.00
2019-06-27T07:57:52.076Z,35.57
2019-06-27T08:00:22.600Z,34.18
2019-06-27T08:02:52.649Z,36.22
2019-06-27T08:05:22.655Z,35.08
2019-06-27T08:07:52.808Z,33.35
2019-06-27T08:10:22.975Z,33.55
2019-06-27T08:12:53.028Z,32.53
2019-06-27T08:15:23.153Z,34.35
2019-06-27T08:17:53.225Z,34.70
2019-06-27T08:20:23.186Z,34.43
2019-06-27T08:22:53.215Z,33.10
2019-06-27T08:25:23.446Z,31.65
2019-06-27T08:27:53.441Z,33.11
2019-06-27T08:30:23.679Z,34.08
2019-06-27T08:32:53.782Z,32.83
2019-06-27T08:35:23.753Z,32.78
2019-06-27T08:37:53.835Z,32.31
2019-06-27T08:40:23.903Z,31.28
2019-06-27T08:42:54.021Z,31.07
2019-06-27T08:45:24.609Z,31.25
2019-06-27T08:47:54.668Z,28.78
2019-06-27T08:50:24.893Z,30.90
2019-06-27T08:52:54.843Z,29.86
2019-06-27T08:55:24.971Z,29.98
2019-06-27T08:57:55.124Z,30.64
2019-06-27T09:00:25.189Z,28.50
2019-06-27T09:02:55.230Z,29.65
2019-06-27T09:05:25.364Z,30.54
2019-06-27T09:07:55.319Z,30.26
2019-06-27T09:10:26.026Z,29.08
2019-06-27T09:12:56.157Z,27.80
2019-06-27T09:15:26.423Z,28.89
2019-06-27T09:17:56.461Z,27.72
2019-06-27T09:20:26.374Z,28.26
2019-06-27T09:22:56.416Z,27.75
2019-06-27T09:25:26.641Z,27.28
2019-06-27T09:27:56.618Z,27.40
2019-06-27T09:30:26.806Z,28.15
2019-06-27T09:32:56.830Z,27.52
2019-06-27T09:35:26.879Z,31.73
2019-06-27T09:37:56.905Z,26.62
2019-06-27T09:40:27.208Z,26.37
2019-06-27T09:42:57.174Z,27.61
2019-06-27T09:45:27.813Z,25.71
2019-06-27T09:47:58.017Z,26.90
2019-06-27T09:50:28.147Z,26.67
2019-06-27T09:52:58.102Z,26.50
2019-06-27T09:55:28.202Z,26.39
2019-06-27T09:57:58.284Z,23.70
2019-06-27T10:00:28.959Z,23.70
2019-06-27T10:02:59.149Z,25.12
2019-06-27T10:05:29.136Z,25.12
2019-06-27T10:07:59.240Z,23.17
2019-06-27T10:10:29.217Z,23.17
2019-06-27T10:12:59.315Z,22.93
2019-06-27T10:15:29.308Z,23.34
2019-06-27T10:17:59.290Z,24.20
2019-06-27T10:20:29.292Z,24.20
2019-06-27T10:22:59.525Z,24.18
2019-06-27T10:25:29.664Z,23.32
2019-06-27T10:27:59.602Z,24.42
2019-06-27T10:30:29.858Z,22.98
2019-06-27T10:33:00.563Z,24.37
2019-06-27T10:35:30.799Z,22.82
2019-06-27T10:38:00.893Z,22.22
2019-06-27T10:40:30.930Z,22.74
2019-06-27T10:43:01.070Z,25.33
2019-06-27T10:45:31.135Z,22.17
2019-06-27T10:48:01.195Z,23.20
2019-06-27T10:50:31.257Z,22.50
2019-06-27T10:53:01.288Z,22.32
2019-06-27T10:55:31.260Z,23.09
2019-06-27T10:58:01.382Z,23.01
2019-06-27T11:00:31.474Z,22.81
2019-06-27T11:03:14.748Z,21.12
2019-06-27T11:05:33.181Z,21.38
2019-06-27T11:08:03.204Z,20.66
2019-06-27T11:10:33.384Z,22.03
2019-06-27T11:13:03.373Z,21.34
2019-06-27T11:15:33.501Z,19.67
2019-06-27T11:18:03.520Z,19.78
2019-06-27T11:20:33.534Z,17.18
2019-06-27T11:23:03.645Z,18.80
2019-06-27T11:25:33.704Z,18.73
2019-06-27T11:28:03.752Z,19.31
2019-06-27T11:30:33.925Z,20.71
2019-06-27T11:33:03.889Z,19.81
2019-06-27T11:35:33.941Z,18.66
2019-06-27T11:38:04.071Z,20.21
2019-06-27T11:40:35.168Z,18.80
2019-06-27T11:43:05.337Z,21.27
2019-06-27T11:45:35.351Z,18.02
2019-06-27T11:48:05.465Z,19.39
2019-06-27T11:50:35.500Z,19.84
2019-06-27T11:53:05.521Z,19.74
2019-06-27T11:55:35.643Z,19.39
2019-06-27T11:58:06.183Z,19.64
2019-06-27T12:00:36.202Z,18.47
2019-06-27T12:03:06.632Z,17.45
2019-06-27T12:05:36.894Z,19.50
2019-06-27T12:08:09.991Z,16.15
2019-06-27T12:10:38.526Z,16.64
2019-06-27T12:13:08.566Z,16.30
2019-06-27T12:15:38.528Z,16.34
2019-06-27T12:18:08.668Z,17.05
2019-06-27T12:20:38.495Z,15.48
2019-06-27T12:23:08.662Z,19.84
2019-06-27T12:25:38.838Z,16.34
2019-06-27T12:28:08.873Z,16.21
2019-06-27T12:30:38.880Z,17.33
2019-06-27T12:33:08.963Z,17.31
2019-06-27T12:35:39.021Z,15.08
2019-06-27T12:38:09.234Z,15.72
2019-06-27T12:40:39.334Z,16.91
2019-06-27T12:43:09.455Z,16.53
2019-06-27T12:45:39.491Z,16.98
2019-06-27T12:48:09.438Z,14.37
2019-06-27T12:50:39.808Z,16.62
2019-06-27T12:53:09.925Z,14.57
2019-06-27T12:55:39.963Z,13.83
2019-06-27T12:58:10.033Z,15.70
2019-06-27T13:00:40.176Z,14.30
2019-06-27T13:03:10.233Z,16.94
2019-06-27T13:05:40.206Z,14.50
2019-06-27T13:08:10.337Z,14.94
2019-06-27T13:10:40.506Z,16.38
2019-06-27T13:13:10.708Z,16.49
2019-06-27T13:15:40.518Z,17.62
2019-06-27T13:18:10.504Z,16.73
2019-06-27T13:20:56.700Z,17.05
2019-06-27T13:23:12.526Z,14.59
2019-06-27T13:25:42.562Z,14.85
2019-06-27T13:28:12.709Z,15.41
2019-06-27T13:30:42.883Z,15.95
2019-06-27T13:33:13.103Z,14.84
2019-06-27T13:35:43.232Z,16.06
2019-06-27T13:38:13.313Z,16.18
2019-06-27T13:40:43.264Z,16.67
2019-06-27T13:43:13.240Z,16.50
2019-06-27T13:45:43.274Z,16.60
2019-06-27T13:48:13.303Z,17.40
2019-06-27T13:50:43.357Z,17.45
2019-06-27T13:53:13.330Z,14.34
2019-06-27T13:55:43.476Z,14.29
2019-06-27T13:58:13.932Z,17.24
2019-06-27T14:00:45.395Z,17.32
2019-06-27T14:03:15.892Z,17.67
2019-06-27T14:05:45.981Z,17.81
2019-06-27T14:08:16.085Z,17.61
2019-06-27T14:10:46.057Z,19.46
2019-06-27T14:13:16.199Z,19.31
2019-06-27T14:15:46.274Z,17.90
2019-06-27T14:18:19.190Z,17.64
2019-06-27T14:20:48.134Z,18.19
2019-06-27T14:23:18.293Z,18.92
2019-06-27T14:25:48.312Z,17.86
2019-06-27T14:28:18.311Z,18.96
2019-06-27T14:30:48.318Z,21.15
2019-06-27T14:33:18.327Z,19.25
2019-06-27T14:35:48.368Z,22.16
2019-06-27T14:38:18.399Z,21.43
2019-06-27T14:40:48.480Z,22.12
2019-06-27T14:43:18.732Z,19.79
2019-06-27T14:45:48.740Z,21.63
2019-06-27T14:48:18.847Z,21.79
2019-06-27T14:50:48.879Z,19.56
2019-06-27T14:53:18.928Z,22.23
2019-06-27T14:55:48.945Z,20.87
2019-06-27T14:58:19.026Z,23.50
2019-06-27T15:00:49.120Z,24.23
2019-06-27T15:03:19.244Z,21.68
2019-06-27T15:05:49.365Z,24.33
2019-06-27T15:08:19.580Z,24.74
2019-06-27T15:10:49.552Z,25.44
2019-06-27T15:13:19.629Z,27.51
2019-06-27T15:15:49.773Z,27.58
2019-06-27T15:18:19.755Z,28.58
2019-06-27T15:20:49.719Z,28.45
2019-06-27T15:23:19.855Z,28.51
2019-06-27T15:25:49.877Z,29.00
2019-06-27T15:28:19.880Z,29.80
2019-06-27T15:30:50.084Z,29.76
2019-06-27T15:33:20.023Z,29.37
2019-06-27T15:35:52.374Z,28.03
2019-06-27T15:38:22.018Z,29.69
2019-06-27T15:40:55.098Z,30.27
2019-06-27T15:43:23.810Z,30.82
2019-06-27T15:45:54.149Z,30.75
2019-06-27T15:48:24.479Z,31.59
2019-06-27T15:50:54.841Z,31.08
2019-06-27T15:53:24.770Z,31.21
2019-06-27T15:55:54.752Z,30.80
2019-06-27T15:58:24.847Z,31.40
2019-06-27T16:00:54.926Z,31.15
2019-06-27T16:03:25.253Z,32.27
2019-06-27T16:06:08.651Z,32.87
2019-06-27T16:08:27.384Z,32.68
2019-06-27T16:10:57.458Z,33.25
2019-06-27T16:13:27.878Z,33.11
2019-06-27T16:15:58.189Z,32.97
2019-06-27T16:18:28.196Z,33.18
2019-06-27T16:20:58.474Z,34.07
2019-06-27T16:23:28.828Z,34.22
2019-06-27T16:25:58.879Z,34.01
2019-06-27T16:28:29.013Z,34.94
2019-06-27T16:30:59.092Z,34.85
2019-06-27T16:33:29.314Z,35.14
2019-06-27T16:35:59.716Z,35.89
2019-06-27T16:38:29.654Z,36.44
2019-06-27T16:40:59.816Z,35.86
2019-06-27T16:43:29.877Z,36.01
2019-06-27T16:46:00.030Z,37.02
2019-06-27T16:48:30.348Z,38.21
2019-06-27T16:51:00.762Z,38.03
2019-06-27T16:53:30.708Z,37.82
2019-06-27T16:56:00.650Z,38.53
2019-06-27T16:58:31.165Z,38.82
2019-06-27T17:01:01.482Z,38.96
2019-06-27T17:03:31.467Z,39.18
2019-06-27T17:06:01.656Z,39.29
2019-06-27T17:08:32.045Z,39.24
2019-06-27T17:11:02.359Z,39.04
2019-06-27T17:13:32.414Z,39.53
2019-06-27T17:16:02.433Z,38.87
2019-06-27T17:18:32.645Z,39.62
2019-06-27T17:21:02.732Z,39.97
2019-06-27T17:23:32.896Z,39.31
2019-06-27T17:26:03.160Z,40.41
2019-06-27T17:28:35.170Z,40.46
2019-06-27T17:31:04.884Z,40.63
2019-06-27T17:33:35.220Z,40.20
2019-06-27T17:36:05.766Z,39.56
2019-06-27T17:38:35.844Z,39.64
2019-06-27T17:41:05.923Z,39.67
2019-06-27T17:43:36.246Z,40.42
2019-06-27T17:46:06.570Z,40.72
2019-06-27T17:48:36.526Z,40.69
2019-06-27T17:51:08.015Z,41.33
2019-06-27T17:53:38.428Z,41.08
2019-06-27T17:56:08.700Z,40.82
2019-06-27T17:58:38.697Z,41.40
2019-06-27T18:01:08.845Z,41.35
2019-06-27T18:03:39.170Z,41.05
2019-06-27T18:06:09.442Z,41.03
2019-06-27T18:08:39.542Z,41.72
2019-06-27T18:11:09.631Z,40.73
2019-06-27T18:13:39.991Z,40.72
2019-06-27T18:16:10.305Z,41.45
2019-06-27T18:18:40.391Z,42.17
2019-06-27T18:21:10.401Z,42.77
2019-06-27T18:23:40.606Z,43.83
2019-06-27T18:26:10.822Z,43.77
2019-06-27T18:28:40.807Z,44.76
2019-06-27T18:31:10.898Z,46.25
2019-06-27T18:33:41.066Z,47.17
2019-06-27T18:36:11.169Z,45.80
2019-06-27T18:38:41.349Z,46.70
2019-06-27T18:41:12.812Z,47.60
2019-06-27T18:43:43.041Z,48.10
2019-06-27T18:46:13.205Z,49.39
2019-06-27T18:48:43.449Z,47.47
2019-06-27T18:51:13.559Z,46.92
2019-06-27T18:53:43.669Z,47.25
2019-06-27T18:56:13.690Z,47.45
2019-06-27T18:58:43.915Z,47.65
2019-06-27T19:01:14.127Z,47.53
2019-06-27T19:03:44.331Z,48.11
2019-06-27T19:06:14.291Z,49.04
2019-06-27T19:08:44.616Z,49.05
2019-06-27T19:11:14.919Z,48.78
2019-06-27T19:13:44.917Z,48.14
2019-06-27T19:16:15.077Z,47.83
2019-06-27T19:18:47.276Z,49.30
2019-06-27T19:21:32.014Z,49.38
2019-06-27T19:24:21.132Z,49.48
2019-06-27T19:26:52.535Z,49.21
2019-06-27T19:29:25.720Z,49.74
2019-06-27T19:31:54.360Z,49.00
2019-06-27T19:34:24.713Z,49.37
2019-06-27T19:36:55.087Z,50.27
2019-06-27T19:39:25.029Z,50.40
2019-06-27T19:41:57.145Z,50.42
2019-06-27T19:44:27.098Z,51.22
2019-06-27T19:46:57.541Z,51.69
2019-06-27T19:49:27.572Z,51.73
2019-06-27T19:51:57.700Z,52.16
2019-06-27T19:54:28.041Z,51.68
2019-06-27T19:56:58.126Z,51.74
2019-06-27T19:59:28.178Z,51.40
2019-06-27T20:01:58.538Z,51.61
2019-06-27T20:04:28.647Z,51.31
2019-06-27T20:06:58.722Z,52.25
2019-06-27T20:09:29.008Z,51.10
2019-06-27T20:11:59.060Z,51.91
2019-06-27T20:14:29.235Z,51.36
2019-06-27T20:16:59.378Z,51.41
2019-06-27T20:19:29.718Z,51.26
2019-06-27T20:22:01.078Z,51.88
2019-06-27T20:24:31.085Z,51.92
2019-06-27T20:27:01.018Z,51.61
2019-06-27T20:29:31.562Z,51.27
2019-06-27T20:32:01.661Z,51.98
2019-06-27T20:34:31.672Z,51.41
2019-06-27T20:37:01.919Z,51.61
2019-06-27T20:39:33.190Z,51.14
2019-06-27T20:42:03.396Z,52.11
2019-06-27T20:44:33.474Z,50.73
2019-06-27T20:47:03.538Z,50.46
2019-06-27T20:49:33.752Z,50.39
2019-06-27T20:52:04.022Z,49.52
2019-06-27T20:54:33.959Z,50.17
2019-06-27T20:57:04.108Z,49.44
2019-06-27T20:59:34.373Z,49.27
2019-06-27T21:02:04.410Z,48.70
2019-06-27T21:04:34.391Z,48.56
2019-06-27T21:07:04.640Z,47.61
2019-06-27T21:09:34.961Z,47.57
2019-06-27T21:12:05.364Z,48.15
2019-06-27T21:14:35.332Z,47.63
2019-06-27T21:17:05.424Z,48.98
2019-06-27T21:19:35.590Z,48.89
2019-06-27T21:22:05.699Z,48.79
2019-06-27T21:24:36.033Z,48.67
2019-06-27T21:27:06.296Z,50.21
2019-06-27T21:29:36.335Z,51.61
2019-06-27T21:32:06.586Z,51.30
2019-06-27T21:34:36.967Z,50.96
2019-06-27T21:37:07.008Z,50.56
2019-06-27T21:39:37.004Z,50.57
2019-06-27T21:42:07.218Z,50.42
2019-06-27T21:44:37.496Z,49.97
2019-06-27T21:47:07.611Z,51.66
2019-06-27T21:49:37.666Z,50.76
2019-06-27T21:52:08.042Z,51.03
2019-06-27T21:54:38.378Z,50.75
2019-06-27T21:57:08.449Z,50.38
2019-06-27T21:59:38.595Z,49.76
2019-06-27T22:02:08.695Z,49.36
2019-06-27T22:04:38.796Z,49.89
2019-06-27T22:07:09.051Z,50.51
2019-06-27T22:09:39.276Z,50.05
2019-06-27T22:12:09.269Z,51.22
2019-06-27T22:14:39.352Z,52.16
2019-06-27T22:17:09.539Z,51.42
2019-06-27T22:19:39.861Z,51.62
2019-06-27T22:22:09.827Z,50.99
2019-06-27T22:24:39.788Z,51.57
2019-06-27T22:27:10.003Z,53.14
2019-06-27T22:29:40.186Z,55.39
2019-06-27T22:32:10.417Z,54.80
2019-06-27T22:34:40.654Z,53.40
2019-06-27T22:37:11.305Z,52.52
2019-06-27T22:39:59.083Z,52.38
2019-06-27T22:42:46.505Z,53.08
2019-06-27T22:45:34.446Z,53.83
2019-06-27T22:48:13.181Z,53.80
2019-06-27T22:51:09.910Z,52.84
2019-06-27T22:53:59.178Z,52.90
2019-06-27T22:56:29.576Z,52.47
2019-06-27T22:58:59.523Z,52.59
2019-06-27T23:01:29.614Z,52.69
2019-06-27T23:03:59.856Z,54.00
2019-06-27T23:06:30.193Z,54.13
2019-06-27T23:09:00.210Z,54.13
2019-06-27T23:11:30.245Z,54.97
2019-06-27T23:14:00.417Z,54.68
2019-06-27T23:16:30.595Z,54.55
2019-06-27T23:19:00.681Z,54.47
2019-06-27T23:21:30.769Z,55.48
2019-06-27T23:24:00.723Z,56.03
2019-06-27T23:26:30.695Z,57.27
2019-06-27T23:29:00.946Z,57.50
2019-06-27T23:31:31.105Z,57.45
2019-06-27T23:34:01.360Z,56.25
2019-06-27T23:36:31.396Z,55.48
2019-06-27T23:39:01.613Z,55.37
2019-06-27T23:41:31.727Z,54.83
2019-06-27T23:44:01.691Z,56.58
2019-06-27T23:46:43.995Z,55.92
2019-06-27T23:49:14.204Z,55.99
2019-06-27T23:51:44.541Z,56.02
2019-06-27T23:54:14.599Z,55.58
2019-06-27T23:56:44.751Z,54.77
2019-06-27T23:59:14.851Z,55.30
